Airfield :
LOGIN :

Register | Disclaimer

   EN    FR    IT 

 










Legend :    VFR   Marginal VFR   IFR   Intensive IFR   Very Intensive IFR
Visi :
Ceiling :
>= 8 km
>= 3000ft
5 to 8 km
1000 to 3000 ft
1500m to 5 km
500 to 1000 ft
800 to 1500m
200 to 500 ft
< 800m
< 200 ft
Symbols :   Thunderstorms  Fog  Heavy snow  Heavy precipitations  Wind > 20 kt
SIGMETs :     Misc.  Thunderstorms  Icing  Turbulence  Mountain Waves  Volcanic Ashes






- Airport Elevation : 416 ft
- IATA code : OVD


LEAS - Asturias

CURRENT METAR :
  • 221400Z 28020KT 6000 FEW002 BKN005 FEW040TCU 16/15 Q1011 TEMPO 1500 TSRA BKN002 SCT040CB

EXPIRED METARs :
  • 221348Z 28020G30KT 250V310 6000 FEW002 BKN005 FEW040TCU 17/16 Q1011 TEMPO 1500 TSRA BKN002 SCT040CB
  • 221330Z 28021KT 5000 BR FEW002 BKN007 FEW040TCU 18/16 Q1011 TEMPO 1500 TSRA BKN002 SCT040CB
  • 221320Z 29018KT 260V320 3000 BR SCT002 BKN008 FEW040TCU 17/16 Q1011 TEMPO 1500 TSRA BKN002 SCT040CB
  • 221306Z 29017KT 260V320 1500 0600W R29/P2000 R11/0750D BCFG BR VV001 16/16 Q1011 TEMPO 0600 FG
  • 221257Z 29016KT 260V320 1500 0500W BCFG VV001 16/16 Q1011 TEMPO 0600 FG
  • 221252Z 29018KT 260V320 4000 BR BKN001 BKN004 17/16 Q1011 TEMPO 1500 BCFG
  • 221230Z 30015KT 270V330 7000 SCT002 BKN009 18/16 Q1011 TEMPO 3000 BR BKN002
  • 221214Z 30015KT 260V330 6000 FEW002 SCT005 BKN008 18/16 Q1011 TEMPO 3000 BR BKN002
  • 221200Z 30015KT 5000 2000NW BR BKN002 18/16 Q1011 TEMPO 1500 BCFG
  • 221130Z 30011KT 250V320 3500 1200NW BCFG BR BKN002 OVC015 17/16 Q1011 TEMPO 0800 FG

TAF AMD TAF LEAS
Valid from the 22 at 11:00 until the 23 at 09:00 UTC


221111Z 2211/2309 29010KT 8000 FEW010 SCT020 TX19/2211Z TN14/2303Z
PROB40
TEMPO 2211/2224 3000 BR BKN005 BKN010
TEMPO 2211/2308 0800 BCFG BKN001
TEMPO 2212/2215 29015G25KT
TEMPO 2212/2224 3000 RA SHRA SCT040TCU
PROB40
TEMPO 2212/2218 1500 TS +SHRA SCT040CB



MET'MAP, your aeronautical weather chart ! - Copyright ORBIFLY December 2007 - Disclaimer

ORBIFLY MET'MAP TEAM :

Programming & Development : Alexandra Zaïnal
Original concept : Baudouin d'Aumeries
Technical & hardware support : Manuel Goepfert
Assistance : Marc-Olivier Méhu

Contact : metmap@orbifly.com




SOURCES & CREDITS :

   NOAA